SWA581 KHOU-KSAT
Flight info
| Callsign | SWA581 |
|---|---|
| Flight time | N/A |
| Altitude | 26000 |
| Route | RETYR8 WAILN QERVO1 |
| Aircraft | B738/M-SDE2E3FGHIRWXY/LB1 |
Departure
| Time | N/A |
|---|---|
| Airport | William P. Hobby Airport (KHOU) |
Arrival
| Time | 2026-04-27 23:30 |
|---|---|
| Airport | San Antonio International Airport (KSAT) |
| Time | Latitude | Longitude | Altitude | Speed | Heading |
|---|---|---|---|---|---|
| 2026-04-27 22:40 | 29.70479 | -95.69568 | 9942 ft | 405 kts | 281° |
| 2026-04-27 22:40 | 29.71075 | -95.72740 | 9912 ft | 398 kts | 281° |
| 2026-04-27 22:40 | 29.71647 | -95.75790 | 9902 ft | 381 kts | 280° |
| 2026-04-27 22:41 | 29.72227 | -95.78695 | 9910 ft | 365 kts | 285° |
| 2026-04-27 22:41 | 29.73217 | -95.81310 | 9930 ft | 352 kts | 298° |
| 2026-04-27 22:41 | 29.74486 | -95.83656 | 9928 ft | 337 kts | 300° |
| 2026-04-27 22:41 | 29.75698 | -95.85899 | 10004 ft | 321 kts | 298° |
| 2026-04-27 22:42 | 29.76583 | -95.88150 | 10235 ft | 300 kts | 283° |
| 2026-04-27 22:42 | 29.76907 | -95.90482 | 10322 ft | 295 kts | 272° |
| 2026-04-27 22:42 | 29.77005 | -95.92881 | 10578 ft | 304 kts | 271° |
| 2026-04-27 22:42 | 29.77080 | -95.95312 | 11141 ft | 304 kts | 271° |
| 2026-04-27 22:43 | 29.77157 | -95.97754 | 11714 ft | 306 kts | 271° |
| 2026-04-27 22:43 | 29.77240 | -96.00204 | 12275 ft | 307 kts | 271° |
| 2026-04-27 22:43 | 29.77328 | -96.02668 | 12810 ft | 310 kts | 271° |
| 2026-04-27 22:43 | 29.77421 | -96.05152 | 13344 ft | 312 kts | 272° |
| 2026-04-27 22:44 | 29.77516 | -96.07651 | 13886 ft | 313 kts | 272° |
| 2026-04-27 22:44 | 29.77612 | -96.10124 | 14383 ft | 314 kts | 272° |
| 2026-04-27 22:44 | 29.77709 | -96.12642 | 14816 ft | 316 kts | 272° |
| 2026-04-27 22:44 | 29.77805 | -96.15161 | 14840 ft | 315 kts | 272° |
| 2026-04-27 22:45 | 29.77902 | -96.17687 | 14866 ft | 316 kts | 272° |
| 2026-04-27 22:45 | 29.78033 | -96.20218 | 14870 ft | 317 kts | 274° |
| 2026-04-27 22:45 | 29.78226 | -96.22792 | 14955 ft | 322 kts | 275° |
| 2026-04-27 22:45 | 29.78432 | -96.25356 | 15486 ft | 321 kts | 275° |
| 2026-04-27 22:46 | 29.78637 | -96.27914 | 16119 ft | 319 kts | 275° |
| 2026-04-27 22:46 | 29.78837 | -96.30465 | 16640 ft | 321 kts | 275° |
| 2026-04-27 22:46 | 29.79035 | -96.33032 | 17113 ft | 324 kts | 275° |
| 2026-04-27 22:46 | 29.79231 | -96.35626 | 17594 ft | 326 kts | 275° |
| 2026-04-27 22:47 | 29.79428 | -96.38236 | 18096 ft | 328 kts | 275° |
| 2026-04-27 22:47 | 29.79623 | -96.40858 | 18554 ft | 329 kts | 275° |
| 2026-04-27 22:47 | 29.79818 | -96.43481 | 19016 ft | 330 kts | 275° |
| 2026-04-27 22:47 | 29.80013 | -96.46115 | 19488 ft | 331 kts | 275° |
| 2026-04-27 22:48 | 29.80208 | -96.48758 | 19937 ft | 332 kts | 275° |
| 2026-04-27 22:48 | 29.80404 | -96.51412 | 20380 ft | 333 kts | 275° |
| 2026-04-27 22:48 | 29.80599 | -96.54072 | 20794 ft | 335 kts | 275° |
| 2026-04-27 22:48 | 29.80793 | -96.56719 | 21212 ft | 336 kts | 275° |
| 2026-04-27 22:49 | 29.80989 | -96.59437 | 21627 ft | 337 kts | 275° |
| 2026-04-27 22:49 | 29.81180 | -96.62104 | 22032 ft | 339 kts | 275° |
| 2026-04-27 22:49 | 29.81374 | -96.64825 | 22417 ft | 341 kts | 275° |
| 2026-04-27 22:49 | 29.81568 | -96.67550 | 22821 ft | 342 kts | 275° |
| 2026-04-27 22:50 | 29.81761 | -96.70281 | 23222 ft | 344 kts | 275° |
| 2026-04-27 22:50 | 29.81954 | -96.73036 | 23573 ft | 345 kts | 275° |
| 2026-04-27 22:50 | 29.82149 | -96.75796 | 23910 ft | 346 kts | 275° |
| 2026-04-27 22:50 | 29.82348 | -96.78566 | 24250 ft | 347 kts | 275° |
| 2026-04-27 22:51 | 29.82549 | -96.81337 | 24588 ft | 348 kts | 275° |
| 2026-04-27 22:51 | 29.82752 | -96.84115 | 24918 ft | 349 kts | 275° |
| 2026-04-27 22:51 | 29.82730 | -96.86908 | 25174 ft | 351 kts | 264° |
| 2026-04-27 22:51 | 29.82294 | -96.89680 | 25462 ft | 353 kts | 258° |
| 2026-04-27 22:52 | 29.81599 | -96.92396 | 25707 ft | 354 kts | 255° |
| 2026-04-27 22:52 | 29.80913 | -96.95123 | 25866 ft | 356 kts | 258° |
| 2026-04-27 22:52 | 29.80408 | -96.97913 | 25943 ft | 356 kts | 263° |
| 2026-04-27 22:52 | 29.80151 | -97.00772 | 25489 ft | 361 kts | 269° |
| 2026-04-27 22:53 | 29.80150 | -97.03653 | 25027 ft | 360 kts | 271° |
| 2026-04-27 22:53 | 29.80155 | -97.06550 | 24555 ft | 361 kts | 271° |
| 2026-04-27 22:53 | 29.80156 | -97.09452 | 24075 ft | 362 kts | 271° |
| 2026-04-27 22:53 | 29.80154 | -97.12345 | 23614 ft | 362 kts | 271° |
| 2026-04-27 22:54 | 29.80208 | -97.15244 | 23087 ft | 362 kts | 275° |
| 2026-04-27 22:54 | 29.80440 | -97.18124 | 22673 ft | 359 kts | 275° |
| 2026-04-27 22:54 | 29.80612 | -97.20965 | 22467 ft | 350 kts | 274° |
| 2026-04-27 22:54 | 29.80718 | -97.23729 | 22287 ft | 342 kts | 268° |
| 2026-04-27 22:55 | 29.80232 | -97.26383 | 22027 ft | 340 kts | 249° |
| 2026-04-27 22:55 | 29.79083 | -97.28749 | 21803 ft | 337 kts | 241° |
| 2026-04-27 22:55 | 29.77779 | -97.30980 | 21558 ft | 334 kts | 239° |
| 2026-04-27 22:55 | 29.76457 | -97.33154 | 21304 ft | 331 kts | 239° |
| 2026-04-27 22:56 | 29.75124 | -97.35332 | 21063 ft | 334 kts | 239° |
| 2026-04-27 22:56 | 29.74025 | -97.37631 | 20831 ft | 332 kts | 255° |
| 2026-04-27 22:56 | 29.73640 | -97.40222 | 20618 ft | 328 kts | 269° |
| 2026-04-27 22:56 | 29.73676 | -97.42838 | 20422 ft | 326 kts | 273° |
| 2026-04-27 22:57 | 29.73800 | -97.45486 | 20043 ft | 328 kts | 274° |
| 2026-04-27 22:57 | 29.73948 | -97.48095 | 19669 ft | 327 kts | 274° |
| 2026-04-27 22:57 | 29.74103 | -97.50708 | 19304 ft | 327 kts | 274° |
| 2026-04-27 22:57 | 29.74263 | -97.53289 | 18934 ft | 326 kts | 274° |
| 2026-04-27 22:58 | 29.74432 | -97.55919 | 18571 ft | 325 kts | 274° |
| 2026-04-27 22:58 | 29.74599 | -97.58471 | 18235 ft | 324 kts | 274° |
| 2026-04-27 22:58 | 29.74772 | -97.61061 | 17808 ft | 323 kts | 274° |
| 2026-04-27 22:58 | 29.75001 | -97.63631 | 17394 ft | 322 kts | 276° |
| 2026-04-27 22:59 | 29.75289 | -97.66186 | 16997 ft | 322 kts | 277° |
| 2026-04-27 22:59 | 29.75586 | -97.68725 | 16599 ft | 321 kts | 277° |
| 2026-04-27 22:59 | 29.75888 | -97.71267 | 16203 ft | 320 kts | 277° |
| 2026-04-27 22:59 | 29.76192 | -97.73801 | 15817 ft | 319 kts | 277° |
| 2026-04-27 23:00 | 29.76815 | -97.78852 | 15043 ft | 318 kts | 277° |
| 2026-04-27 23:00 | 29.77137 | -97.81371 | 14677 ft | 317 kts | 277° |
| 2026-04-27 23:00 | 29.77459 | -97.83879 | 14305 ft | 317 kts | 277° |
| 2026-04-27 23:01 | 29.77785 | -97.86384 | 13962 ft | 316 kts | 277° |
| 2026-04-27 23:01 | 29.78043 | -97.88850 | 13904 ft | 305 kts | 270° |
| 2026-04-27 23:01 | 29.77952 | -97.91284 | 13627 ft | 307 kts | 262° |
| 2026-04-27 23:01 | 29.77548 | -97.93720 | 13116 ft | 313 kts | 255° |
| 2026-04-27 23:02 | 29.76940 | -97.96142 | 12690 ft | 315 kts | 253° |
| 2026-04-27 23:02 | 29.76279 | -97.98530 | 12362 ft | 312 kts | 250° |
| 2026-04-27 23:02 | 29.75524 | -98.00860 | 12000 ft | 311 kts | 249° |
| 2026-04-27 23:02 | 29.74731 | -98.03171 | 11687 ft | 309 kts | 248° |
| 2026-04-27 23:03 | 29.73928 | -98.05436 | 11440 ft | 304 kts | 249° |
| 2026-04-27 23:03 | 29.73222 | -98.07668 | 10983 ft | 307 kts | 250° |
| 2026-04-27 23:03 | 29.72461 | -98.10031 | 10167 ft | 323 kts | 249° |
| 2026-04-27 23:03 | 29.71650 | -98.12445 | 9842 ft | 321 kts | 248° |
| 2026-04-27 23:04 | 29.70796 | -98.14737 | 10023 ft | 301 kts | 245° |
| 2026-04-27 23:04 | 29.69905 | -98.16887 | 9652 ft | 301 kts | 242° |
| 2026-04-27 23:04 | 29.68799 | -98.18960 | 9036 ft | 306 kts | 235° |
| 2026-04-27 23:04 | 29.67644 | -98.20786 | 9940 ft | 244 kts | 235° |
| 2026-04-27 23:05 | 29.66905 | -98.22234 | 10853 ft | 187 kts | 249° |
| 2026-04-27 23:05 | 29.66613 | -98.23701 | 10047 ft | 209 kts | 268° |
| 2026-04-27 23:05 | 29.66961 | -98.25546 | 8850 ft | 249 kts | 292° |
| 2026-04-27 23:05 | 29.67802 | -98.27004 | 9553 ft | 188 kts | 307° |
| 2026-04-27 23:06 | 29.68428 | -98.27820 | 9398 ft | 182 kts | 306° |
| 2026-04-27 23:06 | 29.68864 | -98.28401 | 8965 ft | 193 kts | 307° |
| 2026-04-27 23:06 | 29.69823 | -98.29600 | 8181 ft | 212 kts | 308° |
| 2026-04-27 23:06 | 29.70768 | -98.30905 | 7776 ft | 208 kts | 301° |
| 2026-04-27 23:07 | 29.71530 | -98.32235 | 7620 ft | 193 kts | 297° |
| 2026-04-27 23:07 | 29.72038 | -98.33218 | 7373 ft | 188 kts | 295° |
| 2026-04-27 23:07 | 29.72447 | -98.34047 | 7118 ft | 187 kts | 295° |
| 2026-04-27 23:07 | 29.73089 | -98.35357 | 6682 ft | 188 kts | 294° |
| 2026-04-27 23:08 | 29.73578 | -98.36744 | 6222 ft | 187 kts | 284° |
| 2026-04-27 23:08 | 29.73994 | -98.38147 | 5832 ft | 184 kts | 285° |
| 2026-04-27 23:08 | 29.74418 | -98.39550 | 5349 ft | 188 kts | 285° |
| 2026-04-27 23:08 | 29.74846 | -98.41009 | 4788 ft | 197 kts | 283° |
| 2026-04-27 23:09 | 29.74966 | -98.42549 | 4242 ft | 194 kts | 260° |
| 2026-04-27 23:09 | 29.74865 | -98.44115 | 3829 ft | 197 kts | 263° |
| 2026-04-27 23:09 | 29.74796 | -98.45683 | 3513 ft | 197 kts | 261° |
| 2026-04-27 23:09 | 29.74700 | -98.47229 | 3333 ft | 191 kts | 259° |
| 2026-04-27 23:10 | 29.74545 | -98.48728 | 3075 ft | 185 kts | 256° |
| 2026-04-27 23:10 | 29.74325 | -98.50158 | 2814 ft | 179 kts | 254° |
| 2026-04-27 23:10 | 29.74015 | -98.51510 | 2550 ft | 168 kts | 240° |
| 2026-04-27 23:10 | 29.73500 | -98.52643 | 2623 ft | 152 kts | 234° |
| 2026-04-27 23:11 | 29.73009 | -98.53656 | 2713 ft | 138 kts | 234° |
| 2026-04-27 23:11 | 29.72498 | -98.54659 | 2550 ft | 163 kts | 230° |
| 2026-04-27 23:11 | 29.71784 | -98.55734 | 2966 ft | 172 kts | 226° |
| 2026-04-27 23:11 | 29.71048 | -98.56788 | 3646 ft | 167 kts | 227° |
| 2026-04-27 23:12 | 29.70313 | -98.57841 | 4192 ft | 174 kts | 228° |
| 2026-04-27 23:12 | 29.69776 | -98.58565 | 4429 ft | 183 kts | 224° |
| 2026-04-27 23:12 | 29.68827 | -98.59584 | 4585 ft | 187 kts | 210° |
| 2026-04-27 23:12 | 29.67622 | -98.60131 | 4336 ft | 194 kts | 189° |
| 2026-04-27 23:13 | 29.66279 | -98.60176 | 4200 ft | 195 kts | 174° |
| 2026-04-27 23:13 | 29.65001 | -98.59860 | 4108 ft | 182 kts | 160° |
| 2026-04-27 23:13 | 29.63850 | -98.59271 | 3794 ft | 180 kts | 153° |
| 2026-04-27 23:13 | 29.62728 | -98.58574 | 3576 ft | 187 kts | 152° |
| 2026-04-27 23:14 | 29.61584 | -98.57854 | 3391 ft | 186 kts | 151° |
| 2026-04-27 23:14 | 29.60551 | -98.56971 | 3168 ft | 187 kts | 133° |
| 2026-04-27 23:14 | 29.59721 | -98.55837 | 2944 ft | 183 kts | 131° |
| 2026-04-27 23:14 | 29.58930 | -98.54708 | 2685 ft | 180 kts | 129° |
| 2026-04-27 23:15 | 29.58170 | -98.53588 | 2436 ft | 177 kts | 132° |
| 2026-04-27 23:15 | 29.57350 | -98.52512 | 2146 ft | 180 kts | 134° |
| 2026-04-27 23:15 | 29.56492 | -98.51449 | 1765 ft | 182 kts | 135° |
| 2026-04-27 23:15 | 29.55665 | -98.50379 | 1380 ft | 174 kts | 131° |
| 2026-04-27 23:16 | 29.54916 | -98.49378 | 1115 ft | 167 kts | 133° |
| 2026-04-27 23:16 | 29.54149 | -98.48395 | 827 ft | 155 kts | 132° |
| 2026-04-27 23:16 | 29.53467 | -98.47547 | 854 ft | 146 kts | 131° |
| 2026-04-27 23:16 | 29.52945 | -98.46885 | 1277 ft | 147 kts | 130° |
| 2026-04-27 23:17 | 29.52070 | -98.46157 | 1643 ft | 170 kts | 162° |
| 2026-04-27 23:17 | 29.50960 | -98.45808 | 2505 ft | 156 kts | 163° |
| 2026-04-27 23:17 | 29.49936 | -98.45763 | 3306 ft | 146 kts | 194° |
| 2026-04-27 23:17 | 29.49095 | -98.46371 | 3896 ft | 145 kts | 221° |
| 2026-04-27 23:18 | 29.48492 | -98.47349 | 4188 ft | 161 kts | 244° |
| 2026-04-27 23:18 | 29.48294 | -98.48681 | 4484 ft | 172 kts | 267° |
| 2026-04-27 23:18 | 29.48625 | -98.49931 | 4750 ft | 165 kts | 298° |
| 2026-04-27 23:18 | 29.49413 | -98.51007 | 4201 ft | 190 kts | 310° |
| 2026-04-27 23:19 | 29.50431 | -98.52265 | 3372 ft | 234 kts | 314° |
| 2026-04-27 23:19 | 29.51581 | -98.53537 | 3358 ft | 231 kts | 316° |
| 2026-04-27 23:19 | 29.52800 | -98.54802 | 3022 ft | 247 kts | 317° |
| 2026-04-27 23:19 | 29.54102 | -98.56112 | 2880 ft | 247 kts | 316° |
| 2026-04-27 23:20 | 29.55358 | -98.57398 | 3004 ft | 237 kts | 317° |
| 2026-04-27 23:20 | 29.56604 | -98.58632 | 2987 ft | 237 kts | 318° |
| 2026-04-27 23:20 | 29.57877 | -98.59877 | 2903 ft | 247 kts | 319° |
| 2026-04-27 23:20 | 29.59218 | -98.61152 | 3538 ft | 244 kts | 320° |
| 2026-04-27 23:21 | 29.60486 | -98.62409 | 4078 ft | 246 kts | 321° |
| 2026-04-27 23:21 | 29.61885 | -98.63640 | 4314 ft | 253 kts | 322° |
| 2026-04-27 23:21 | 29.63215 | -98.64814 | 5180 ft | 227 kts | 320° |
| 2026-04-27 23:21 | 29.64443 | -98.65883 | 5728 ft | 223 kts | 320° |
| 2026-04-27 23:22 | 29.65742 | -98.66997 | 5681 ft | 245 kts | 319° |
| 2026-04-27 23:22 | 29.67078 | -98.68332 | 5630 ft | 264 kts | 316° |
| 2026-04-27 23:22 | 29.68468 | -98.69713 | 5935 ft | 255 kts | 317° |
| 2026-04-27 23:22 | 29.69752 | -98.70989 | 6223 ft | 234 kts | 314° |
| 2026-04-27 23:23 | 29.70772 | -98.72369 | 6089 ft | 225 kts | 299° |
| 2026-04-27 23:23 | 29.71515 | -98.74012 | 5474 ft | 240 kts | 292° |
| 2026-04-27 23:23 | 29.72598 | -98.75345 | 5624 ft | 216 kts | 341° |
| 2026-04-27 23:23 | 29.73958 | -98.75298 | 5754 ft | 194 kts | 22° |
| 2026-04-27 23:24 | 29.75072 | -98.74459 | 5468 ft | 190 kts | 51° |
| 2026-04-27 23:24 | 29.75720 | -98.73200 | 5131 ft | 182 kts | 78° |
| 2026-04-27 23:24 | 29.75737 | -98.71819 | 4776 ft | 169 kts | 116° |
| 2026-04-27 23:24 | 29.74997 | -98.70777 | 4299 ft | 177 kts | 148° |
| 2026-04-27 23:25 | 29.73880 | -98.70018 | 3959 ft | 191 kts | 154° |
| 2026-04-27 23:25 | 29.72724 | -98.69342 | 3992 ft | 187 kts | 153° |
| 2026-04-27 23:25 | 29.71551 | -98.68562 | 3508 ft | 206 kts | 148° |
| 2026-04-27 23:25 | 29.70300 | -98.67613 | 3151 ft | 216 kts | 144° |
| 2026-04-27 23:26 | 29.69201 | -98.66529 | 3115 ft | 201 kts | 139° |
| 2026-04-27 23:26 | 29.68200 | -98.65487 | 2969 ft | 188 kts | 139° |
| 2026-04-27 23:26 | 29.67271 | -98.64473 | 2817 ft | 181 kts | 136° |
| 2026-04-27 23:26 | 29.66414 | -98.63427 | 2604 ft | 178 kts | 135° |
| 2026-04-27 23:27 | 29.65526 | -98.62437 | 2332 ft | 179 kts | 142° |
| 2026-04-27 23:27 | 29.64511 | -98.61570 | 2185 ft | 182 kts | 144° |
| 2026-04-27 23:27 | 29.63557 | -98.60638 | 2038 ft | 181 kts | 140° |
| 2026-04-27 23:27 | 29.62598 | -98.59670 | 1898 ft | 184 kts | 137° |
| 2026-04-27 23:28 | 29.61785 | -98.58552 | 1816 ft | 180 kts | 129° |
| 2026-04-27 23:28 | 29.60982 | -98.57510 | 1894 ft | 171 kts | 136° |
| 2026-04-27 23:28 | 29.60192 | -98.56512 | 1900 ft | 166 kts | 133° |
| 2026-04-27 23:28 | 29.59409 | -98.55492 | 2054 ft | 175 kts | 134° |
| 2026-04-27 23:29 | 29.58613 | -98.54419 | 2208 ft | 178 kts | 131° |
| 2026-04-27 23:29 | 29.57858 | -98.53349 | 2274 ft | 164 kts | 130° |
| 2026-04-27 23:29 | 29.57161 | -98.52355 | 1913 ft | 171 kts | 130° |
| 2026-04-27 23:29 | 29.56347 | -98.51259 | 1716 ft | 184 kts | 131° |
| 2026-04-27 23:30 | 29.55524 | -98.50153 | 1430 ft | 177 kts | 131° |
| 2026-04-27 23:30 | 29.54710 | -98.49114 | 1089 ft | 174 kts | 132° |
| 2026-04-27 23:30 | 29.53925 | -98.48097 | 814 ft | 164 kts | 129° |
| 2026-04-27 23:30 | 29.53492 | -98.47543 | 798 ft | 26 kts | 131° |
| 2026-04-27 23:31 | 29.53458 | -98.47510 | 798 ft | 16 kts | 159° |
| 2026-04-27 23:31 | 29.53365 | -98.47558 | 799 ft | 14 kts | 220° |
| 2026-04-27 23:31 | 29.53280 | -98.47601 | 800 ft | 16 kts | 156° |
| 2026-04-27 23:31 | 29.53218 | -98.47524 | 798 ft | 15 kts | 134° |
| 2026-04-27 23:32 | 29.53155 | -98.47440 | 797 ft | 13 kts | 122° |
| 2026-04-27 23:32 | 29.53112 | -98.47372 | 798 ft | 9 kts | 135° |
| 2026-04-27 23:32 | 29.53072 | -98.47315 | 798 ft | 11 kts | 129° |
| 2026-04-27 23:32 | 29.53011 | -98.47235 | 795 ft | 15 kts | 131° |
| 2026-04-27 23:33 | 29.52936 | -98.47144 | 793 ft | 15 kts | 135° |
| 2026-04-27 23:33 | 29.52866 | -98.47119 | 793 ft | 5 kts | 219° |
| 2026-04-27 23:33 | 29.52865 | -98.47124 | 793 ft | 1 kts | 258° |
| 2026-04-27 23:33 | 29.52869 | -98.47127 | 793 ft | 1 kts | 310° |
| 2026-04-27 23:34 | 29.52875 | -98.47136 | 793 ft | 3 kts | 307° |
| 2026-04-27 23:34 | 29.52882 | -98.47155 | 793 ft | 0 kts | 288° |
| 2026-04-27 23:35 | 29.52882 | -98.47153 | 793 ft | 2 kts | 288° |
| 2026-04-27 23:35 | 29.52876 | -98.47135 | 793 ft | 3 kts | 288° |
| 2026-04-27 23:35 | 29.52874 | -98.47127 | 793 ft | 0 kts | 288° |
| 2026-04-27 23:35 | 29.52875 | -98.47130 | 793 ft | 1 kts | 296° |
| 2026-04-27 23:36 | 29.52878 | -98.47133 | 793 ft | 1 kts | 303° |
| 2026-04-27 23:36 | 29.52879 | -98.47138 | 793 ft | 1 kts | 290° |
| 2026-04-27 23:36 | 29.52880 | -98.47140 | 793 ft | 1 kts | 290° |
| 2026-04-27 23:37 | 29.72314 | -98.33776 | 7172 ft | 187 kts | 295° |
| 2026-04-27 23:37 | 29.72960 | -98.35093 | 6732 ft | 188 kts | 296° |
| 2026-04-27 23:38 | 29.55278 | -98.49849 | 1223 ft | 171 kts | 130° |
| 2026-04-27 23:38 | 29.55362 | -98.49965 | 1253 ft | 172 kts | 128° |
| 2026-04-27 23:38 | 29.54593 | -98.48952 | 981 ft | 164 kts | 131° |
| 2026-04-27 23:38 | 29.53868 | -98.48048 | 822 ft | 144 kts | 132° |
| 2026-04-27 23:39 | 29.53232 | -98.47256 | 993 ft | 147 kts | 133° |
| 2026-04-27 23:39 | 29.52662 | -98.46543 | 1443 ft | 154 kts | 140° |
| 2026-04-27 23:39 | 29.51617 | -98.46014 | 1877 ft | 168 kts | 163° |
| 2026-04-27 23:39 | 29.50553 | -98.45700 | 2844 ft | 150 kts | 173° |
| 2026-04-27 23:40 | 29.49573 | -98.45946 | 3545 ft | 144 kts | 206° |
| 2026-04-27 23:40 | 29.48828 | -98.46714 | 4016 ft | 149 kts | 227° |
| 2026-04-27 23:40 | 29.48362 | -98.47851 | 4223 ft | 171 kts | 255° |
| 2026-04-27 23:40 | 29.48312 | -98.48227 | 4300 ft | 174 kts | 261° |